createdAt,value
2023-02-23T00:01:40.410Z,7.65
2023-02-23T00:04:08.586Z,7.65
2023-02-23T00:06:38.102Z,7.65
2023-02-23T00:09:10.808Z,7.63
2023-02-23T00:11:40.005Z,7.62
2023-02-23T00:14:08.385Z,7.63
2023-02-23T00:16:37.486Z,7.63
2023-02-23T00:19:08.244Z,7.62
2023-02-23T00:21:36.524Z,7.63
2023-02-23T00:24:06.735Z,7.61
2023-02-23T00:26:35.626Z,7.60
2023-02-23T00:29:06.632Z,7.61
2023-02-23T00:31:35.112Z,7.62
2023-02-23T00:34:04.275Z,7.61
2023-02-23T00:36:33.960Z,7.60
2023-02-23T00:39:06.365Z,7.62
2023-02-23T00:41:34.330Z,7.58
2023-02-23T00:44:02.450Z,7.51
2023-02-23T00:46:31.903Z,7.50
2023-02-23T00:49:00.778Z,7.51
2023-02-23T00:51:30.988Z,7.54
2023-02-23T00:53:59.822Z,7.57
2023-02-23T00:56:28.538Z,7.57
2023-02-23T00:58:56.669Z,7.58
2023-02-23T01:01:25.591Z,7.58
2023-02-23T01:03:54.763Z,7.59
2023-02-23T01:06:23.072Z,7.59
2023-02-23T01:08:56.601Z,7.57
2023-02-23T01:11:27.826Z,7.59
2023-02-23T01:13:57.979Z,7.55
2023-02-23T01:16:27.909Z,7.53
2023-02-23T01:18:58.664Z,7.54
2023-02-23T01:21:28.835Z,7.55
2023-02-23T01:24:00.004Z,7.54
2023-02-23T01:26:30.174Z,7.54
2023-02-23T01:29:01.536Z,7.53
2023-02-23T01:31:31.310Z,7.53
2023-02-23T01:34:02.958Z,7.54
2023-02-23T01:36:34.538Z,7.51
2023-02-23T01:39:02.329Z,7.53
2023-02-23T01:41:33.025Z,7.54
2023-02-23T01:44:05.141Z,7.54
2023-02-23T01:46:34.161Z,7.56
2023-02-23T01:49:05.464Z,7.57
2023-02-23T01:51:38.259Z,7.58
2023-02-23T01:54:11.124Z,7.59
2023-02-23T01:56:43.555Z,7.57
2023-02-23T01:59:15.332Z,7.58
2023-02-23T02:01:44.154Z,7.57
2023-02-23T02:04:16.546Z,7.57
2023-02-23T02:06:46.965Z,7.58
2023-02-23T02:09:19.083Z,7.57
2023-02-23T02:11:54.162Z,7.55
2023-02-23T02:14:25.531Z,7.53
2023-02-23T02:17:03.575Z,7.52
2023-02-23T02:20:00.313Z,7.50
2023-02-23T02:23:15.824Z,7.50
2023-02-23T02:25:56.077Z,7.51
2023-02-23T02:28:56.963Z,7.50
2023-02-23T02:32:08.000Z,7.47
2023-02-23T02:34:59.544Z,7.46
2023-02-23T02:37:37.818Z,7.46
2023-02-23T02:40:17.350Z,7.44
2023-02-23T02:43:09.009Z,7.44
2023-02-23T02:45:44.670Z,7.45
2023-02-23T02:48:21.770Z,7.43
2023-02-23T02:50:56.189Z,7.42
2023-02-23T02:53:31.679Z,7.43
2023-02-23T02:56:05.614Z,7.44
2023-02-23T02:58:33.948Z,7.46
2023-02-23T03:01:25.794Z,7.43
2023-02-23T03:04:11.336Z,7.38
2023-02-23T03:07:03.526Z,7.36
2023-02-23T03:09:59.699Z,7.33
2023-02-23T03:12:52.305Z,7.31
2023-02-23T03:15:55.393Z,7.32
2023-02-23T03:18:58.508Z,7.36
2023-02-23T03:21:47.355Z,7.37
2023-02-23T03:24:42.404Z,7.40
2023-02-23T03:27:37.649Z,7.41
2023-02-23T03:30:29.021Z,7.43
2023-02-23T03:33:19.991Z,7.42
2023-02-23T03:36:11.310Z,7.42
2023-02-23T03:39:03.883Z,7.42
2023-02-23T03:41:52.759Z,7.41
2023-02-23T03:44:45.857Z,7.36
2023-02-23T03:47:34.019Z,7.29
2023-02-23T03:50:24.405Z,7.24
2023-02-23T03:53:15.283Z,7.21
2023-02-23T03:56:04.055Z,7.20
2023-02-23T03:58:55.162Z,7.22
2023-02-23T04:01:45.044Z,7.20
2023-02-23T04:04:31.046Z,7.16
2023-02-23T04:07:19.388Z,7.19
2023-02-23T04:10:04.733Z,7.20
2023-02-23T04:12:55.914Z,7.23
2023-02-23T04:15:28.423Z,7.24
2023-02-23T04:17:57.665Z,7.25
2023-02-23T04:20:26.331Z,7.25
2023-02-23T04:22:54.144Z,7.26
2023-02-23T04:25:23.151Z,7.26
2023-02-23T04:27:51.031Z,7.25
2023-02-23T04:30:20.710Z,7.20
2023-02-23T04:32:48.620Z,7.19
2023-02-23T04:35:17.837Z,7.20
2023-02-23T04:37:45.556Z,7.20
2023-02-23T04:40:14.058Z,7.21
2023-02-23T04:42:42.533Z,7.20
2023-02-23T04:45:11.542Z,7.19
2023-02-23T04:47:39.475Z,7.19
2023-02-23T04:50:08.499Z,7.18
2023-02-23T04:52:38.890Z,7.18
2023-02-23T04:55:08.407Z,7.18
2023-02-23T04:57:36.565Z,7.18
2023-02-23T05:00:05.767Z,7.17
2023-02-23T05:02:33.516Z,7.18
2023-02-23T05:05:01.295Z,7.17
2023-02-23T05:07:29.019Z,7.16
2023-02-23T05:09:58.146Z,7.13
2023-02-23T05:12:25.909Z,7.14
2023-02-23T05:14:53.598Z,7.14
2023-02-23T05:17:21.415Z,7.12
2023-02-23T05:19:49.162Z,7.15
2023-02-23T05:22:16.927Z,7.14
2023-02-23T05:24:44.702Z,7.11
2023-02-23T05:27:14.117Z,7.07
2023-02-23T05:29:41.888Z,7.07
2023-02-23T05:32:09.763Z,7.08
2023-02-23T05:34:39.086Z,7.07
2023-02-23T05:37:07.199Z,7.07
2023-02-23T05:39:34.961Z,7.06
2023-02-23T05:42:02.677Z,7.05
2023-02-23T05:44:31.811Z,7.04
2023-02-23T05:46:59.634Z,7.02
2023-02-23T05:49:27.402Z,7.02
2023-02-23T05:51:55.211Z,7.03
2023-02-23T05:54:22.942Z,7.02
2023-02-23T05:56:51.000Z,7.02
2023-02-23T05:59:18.768Z,7.02
2023-02-23T06:01:47.838Z,7.03
2023-02-23T06:04:15.849Z,7.03
2023-02-23T06:06:43.741Z,7.02
2023-02-23T06:09:11.462Z,7.00
2023-02-23T06:11:39.223Z,6.97
2023-02-23T06:14:06.985Z,6.96
2023-02-23T06:16:34.846Z,6.98
2023-02-23T06:19:04.312Z,6.99
2023-02-23T06:21:32.026Z,6.96
2023-02-23T06:24:01.036Z,6.93
2023-02-23T06:26:29.028Z,6.93
2023-02-23T06:28:57.176Z,6.93
2023-02-23T06:31:24.941Z,6.89
2023-02-23T06:33:52.717Z,6.89
2023-02-23T06:36:21.828Z,6.88
2023-02-23T06:38:49.547Z,6.89
2023-02-23T06:41:18.080Z,6.89
2023-02-23T06:43:45.971Z,6.90
2023-02-23T06:46:13.821Z,6.89
2023-02-23T06:48:41.742Z,6.88
2023-02-23T06:51:09.830Z,6.87
2023-02-23T06:53:39.019Z,6.86
2023-02-23T06:56:07.407Z,6.84
2023-02-23T06:58:35.190Z,6.82
2023-02-23T07:01:03.282Z,6.81
2023-02-23T07:03:31.066Z,6.81
2023-02-23T07:05:58.818Z,6.81
2023-02-23T07:08:26.552Z,6.82
2023-02-23T07:10:57.722Z,6.83
2023-02-23T07:13:25.419Z,6.83
2023-02-23T07:15:58.265Z,6.83
2023-02-23T07:18:26.088Z,6.81
2023-02-23T07:20:53.871Z,6.76
2023-02-23T07:23:22.315Z,6.75
2023-02-23T07:25:51.322Z,6.74
2023-02-23T07:28:21.090Z,6.74
2023-02-23T07:30:49.922Z,6.73
2023-02-23T07:33:18.051Z,6.75
2023-02-23T07:35:46.231Z,6.76
2023-02-23T07:38:14.014Z,6.74
2023-02-23T07:40:41.828Z,6.77
2023-02-23T07:43:09.614Z,6.75
2023-02-23T07:45:38.821Z,6.79
2023-02-23T07:48:06.950Z,6.83
2023-02-23T07:50:35.618Z,6.84
2023-02-23T07:53:03.356Z,6.81
2023-02-23T07:55:31.063Z,6.84
2023-02-23T07:57:59.118Z,6.85
2023-02-23T08:00:27.235Z,6.87
2023-02-23T08:02:56.391Z,6.92
2023-02-23T08:05:26.581Z,6.96
2023-02-23T08:07:54.486Z,7.01
2023-02-23T08:10:22.346Z,7.04
2023-02-23T08:12:50.173Z,7.05
2023-02-23T08:15:18.001Z,7.06
2023-02-23T08:17:45.750Z,7.04
2023-02-23T08:20:15.059Z,7.04
2023-02-23T08:22:49.444Z,7.05
2023-02-23T08:25:18.287Z,7.06
2023-02-23T08:27:46.058Z,7.11
2023-02-23T08:30:15.505Z,7.11
2023-02-23T08:32:43.332Z,7.15
2023-02-23T08:35:11.869Z,7.12
2023-02-23T08:37:41.861Z,7.13
2023-02-23T08:40:11.501Z,7.14
2023-02-23T08:42:39.234Z,7.14
2023-02-23T08:45:08.681Z,7.17
2023-02-23T08:47:36.811Z,7.19
2023-02-23T08:50:06.257Z,7.17
2023-02-23T08:52:34.079Z,7.20
2023-02-23T08:55:03.258Z,7.21
2023-02-23T08:57:33.769Z,7.22
2023-02-23T09:00:01.661Z,7.23
2023-02-23T09:02:29.802Z,7.25
2023-02-23T09:04:57.908Z,7.24
2023-02-23T09:07:25.768Z,7.24
2023-02-23T09:09:56.919Z,7.28
2023-02-23T09:12:26.138Z,7.30
2023-02-23T09:14:54.360Z,7.33
2023-02-23T09:17:23.285Z,7.34
2023-02-23T09:19:51.622Z,7.35
2023-02-23T09:22:19.819Z,7.40
2023-02-23T09:24:47.677Z,7.46
2023-02-23T09:27:15.440Z,7.51
2023-02-23T09:29:44.525Z,7.51
2023-02-23T09:32:13.427Z,7.46
2023-02-23T09:34:41.275Z,7.48
2023-02-23T09:37:09.045Z,7.50
2023-02-23T09:39:39.056Z,7.50
2023-02-23T09:42:35.023Z,7.39
2023-02-23T09:45:15.602Z,7.52
2023-02-23T09:47:57.466Z,7.46
2023-02-23T09:50:30.038Z,7.57
2023-02-23T09:53:03.618Z,7.59
2023-02-23T09:55:31.725Z,7.58
2023-02-23T09:58:07.036Z,7.72
2023-02-23T10:00:41.555Z,7.73
2023-02-23T10:03:20.793Z,7.75
2023-02-23T10:05:53.467Z,7.78
2023-02-23T10:08:39.565Z,7.84
2023-02-23T10:11:15.063Z,7.92
2023-02-23T10:13:56.011Z,7.92
2023-02-23T10:16:37.480Z,7.97
2023-02-23T10:19:13.122Z,7.96
2023-02-23T10:21:42.652Z,8.03
2023-02-23T10:24:15.246Z,8.06
2023-02-23T10:26:48.444Z,8.09
2023-02-23T10:29:24.085Z,8.12
2023-02-23T10:31:58.667Z,8.14
2023-02-23T10:34:29.056Z,8.14
2023-02-23T10:37:01.565Z,8.15
2023-02-23T10:39:30.925Z,8.23
2023-02-23T10:42:00.807Z,8.23
2023-02-23T10:44:29.814Z,8.19
2023-02-23T10:47:02.718Z,8.20
2023-02-23T10:49:40.227Z,8.26
2023-02-23T10:52:13.609Z,8.27
2023-02-23T10:54:45.724Z,8.31
2023-02-23T10:57:21.884Z,8.24
2023-02-23T11:00:20.410Z,8.21
2023-02-23T11:02:49.897Z,8.21
2023-02-23T11:05:32.356Z,8.19
2023-02-23T11:08:22.446Z,8.17
2023-02-23T11:11:08.380Z,8.21
2023-02-23T11:13:42.435Z,8.21
2023-02-23T11:16:14.183Z,8.25
2023-02-23T11:18:50.806Z,8.23
2023-02-23T11:21:24.334Z,8.21
2023-02-23T11:23:54.262Z,8.20
2023-02-23T11:26:37.684Z,8.12
2023-02-23T11:29:15.935Z,8.16
2023-02-23T11:31:49.746Z,8.18
2023-02-23T11:34:29.327Z,8.18
2023-02-23T11:37:03.423Z,8.18
2023-02-23T11:39:31.350Z,8.11
2023-02-23T11:42:14.925Z,8.06
2023-02-23T11:44:42.877Z,8.03
2023-02-23T11:47:17.256Z,8.09
2023-02-23T11:49:48.258Z,8.13
2023-02-23T11:52:19.490Z,8.11
2023-02-23T11:54:53.605Z,8.10
2023-02-23T11:57:23.105Z,8.16
2023-02-23T11:59:52.247Z,8.28
2023-02-23T12:02:24.867Z,8.31
2023-02-23T12:05:05.116Z,8.39
2023-02-23T12:07:41.411Z,8.38
2023-02-23T12:10:16.606Z,8.40
2023-02-23T12:12:52.008Z,8.41
2023-02-23T12:15:31.889Z,8.37
2023-02-23T12:18:04.005Z,8.43
2023-02-23T12:20:38.757Z,8.34
2023-02-23T12:23:11.251Z,8.43
2023-02-23T12:25:43.909Z,8.42
2023-02-23T12:28:19.370Z,8.41
2023-02-23T12:30:53.006Z,8.46
2023-02-23T12:33:27.082Z,8.42
2023-02-23T12:36:00.790Z,8.40
2023-02-23T12:38:35.676Z,8.44
2023-02-23T12:41:10.598Z,8.46
2023-02-23T12:43:42.277Z,8.39
2023-02-23T12:46:15.640Z,8.38
2023-02-23T12:48:51.927Z,8.38
2023-02-23T12:51:28.624Z,8.46
2023-02-23T12:53:56.534Z,8.50
2023-02-23T12:56:35.618Z,8.46
2023-02-23T12:59:39.263Z,8.53
2023-02-23T13:02:15.649Z,8.62
2023-02-23T13:05:06.057Z,8.64
2023-02-23T13:07:44.906Z,8.60
2023-02-23T13:10:22.054Z,8.72
2023-02-23T13:13:03.017Z,8.79
2023-02-23T13:15:44.994Z,8.89
2023-02-23T13:18:22.256Z,8.85
2023-02-23T13:20:56.007Z,8.84
2023-02-23T13:23:33.295Z,8.89
2023-02-23T13:26:11.807Z,8.89
2023-02-23T13:28:50.564Z,8.86
2023-02-23T13:31:25.677Z,8.87
2023-02-23T13:33:58.903Z,8.87
2023-02-23T13:36:30.507Z,8.87
2023-02-23T13:39:27.874Z,8.87
2023-02-23T13:42:12.286Z,8.86
2023-02-23T13:44:49.857Z,8.88
2023-02-23T13:47:31.883Z,8.85
2023-02-23T13:50:05.582Z,8.85
2023-02-23T13:52:39.821Z,8.83
2023-02-23T13:55:48.290Z,8.83
2023-02-23T13:58:20.308Z,8.91
2023-02-23T14:00:55.865Z,8.96
2023-02-23T14:03:28.249Z,8.93
2023-02-23T14:06:00.541Z,8.91
2023-02-23T14:08:35.749Z,8.96
2023-02-23T14:11:06.994Z,8.94
2023-02-23T14:13:40.384Z,8.97
2023-02-23T14:16:26.431Z,8.96
2023-02-23T14:19:08.142Z,8.89
2023-02-23T14:21:42.752Z,8.90
2023-02-23T14:24:29.822Z,8.89
2023-02-23T14:27:39.863Z,8.86
2023-02-23T14:30:20.910Z,8.85
2023-02-23T14:32:50.515Z,8.86
2023-02-23T14:35:42.870Z,8.82
2023-02-23T14:38:29.972Z,8.85
2023-02-23T14:41:03.669Z,8.93
2023-02-23T14:43:42.838Z,8.99
2023-02-23T14:46:15.719Z,9.04
2023-02-23T14:48:46.592Z,8.94
2023-02-23T14:51:21.561Z,8.94
2023-02-23T14:53:53.124Z,9.02
2023-02-23T14:56:26.207Z,9.09
2023-02-23T14:59:00.092Z,9.08
2023-02-23T15:01:38.348Z,9.09
2023-02-23T15:04:08.082Z,9.08
2023-02-23T15:06:36.812Z,9.08
2023-02-23T15:09:04.980Z,9.05
2023-02-23T15:11:33.118Z,8.99
2023-02-23T15:14:02.259Z,9.01
2023-02-23T15:16:34.908Z,8.97
2023-02-23T15:19:05.053Z,9.03
2023-02-23T15:21:32.907Z,8.98
2023-02-23T15:24:07.480Z,8.95
2023-02-23T15:26:37.991Z,8.94
2023-02-23T15:29:16.094Z,8.86
2023-02-23T15:31:51.016Z,8.86
2023-02-23T15:34:20.981Z,8.80
2023-02-23T15:36:53.619Z,8.77
2023-02-23T15:39:30.750Z,8.72
2023-02-23T15:41:58.829Z,8.70
2023-02-23T15:44:38.912Z,8.70
2023-02-23T15:47:19.936Z,8.59
2023-02-23T15:49:48.006Z,8.44
2023-02-23T15:52:18.752Z,8.24
2023-02-23T15:54:52.719Z,8.11
2023-02-23T15:57:23.894Z,7.99
2023-02-23T15:59:54.541Z,7.84
2023-02-23T16:02:25.431Z,7.64
2023-02-23T16:04:53.886Z,7.62
2023-02-23T16:07:24.706Z,7.58
2023-02-23T16:09:54.582Z,7.64
2023-02-23T16:12:26.058Z,7.67
2023-02-23T16:14:58.068Z,7.65
2023-02-23T16:17:29.648Z,7.64
2023-02-23T16:20:11.912Z,7.66
2023-02-23T16:22:40.927Z,7.58
2023-02-23T16:25:13.497Z,7.52
2023-02-23T16:27:42.319Z,7.39
2023-02-23T16:30:23.307Z,7.49
2023-02-23T16:33:04.673Z,7.46
2023-02-23T16:35:37.748Z,7.53
2023-02-23T16:38:13.782Z,7.40
2023-02-23T16:40:42.280Z,7.39
2023-02-23T16:43:10.652Z,7.38
2023-02-23T16:45:42.592Z,7.35
2023-02-23T16:48:14.581Z,7.45
2023-02-23T16:50:42.530Z,7.41
2023-02-23T16:53:12.155Z,7.28
2023-02-23T16:55:43.488Z,7.16
2023-02-23T16:58:17.193Z,7.00
2023-02-23T17:00:46.422Z,6.99
2023-02-23T17:03:20.326Z,7.05
2023-02-23T17:05:48.519Z,7.08
2023-02-23T17:08:16.301Z,6.94
2023-02-23T17:10:45.521Z,6.97
2023-02-23T17:13:18.032Z,7.06
2023-02-23T17:15:51.902Z,6.94
2023-02-23T17:18:20.385Z,6.86
2023-02-23T17:20:48.225Z,6.78
2023-02-23T17:23:16.075Z,6.74
2023-02-23T17:25:43.821Z,6.74
2023-02-23T17:28:11.616Z,6.74
2023-02-23T17:30:42.765Z,6.70
2023-02-23T17:33:12.922Z,6.68
2023-02-23T17:35:40.818Z,6.71
2023-02-23T17:38:09.590Z,6.65
2023-02-23T17:40:37.894Z,6.72
2023-02-23T17:43:08.733Z,6.75
2023-02-23T17:45:36.761Z,6.74
2023-02-23T17:48:04.585Z,6.71
2023-02-23T17:50:34.151Z,6.64
2023-02-23T17:53:01.991Z,6.58
2023-02-23T17:55:29.825Z,6.57
2023-02-23T17:57:57.655Z,6.59
2023-02-23T18:00:26.111Z,6.62
2023-02-23T18:02:53.882Z,6.61
2023-02-23T18:05:22.050Z,6.48
2023-02-23T18:07:51.196Z,6.54
2023-02-23T18:10:19.173Z,6.46
2023-02-23T18:12:46.976Z,6.57
2023-02-23T18:15:14.842Z,6.38
2023-02-23T18:17:42.618Z,6.24
2023-02-23T18:20:15.132Z,6.30
2023-02-23T18:22:43.705Z,6.31
2023-02-23T18:25:21.511Z,6.20
2023-02-23T18:27:53.963Z,6.33
2023-02-23T18:30:23.368Z,6.35
2023-02-23T18:32:52.361Z,6.34
2023-02-23T18:35:20.346Z,6.28
2023-02-23T18:37:48.674Z,6.29
2023-02-23T18:40:21.532Z,6.24
2023-02-23T18:42:49.444Z,6.29
2023-02-23T18:45:17.538Z,6.16
2023-02-23T18:47:45.304Z,6.17
2023-02-23T18:50:19.287Z,6.11
2023-02-23T18:52:48.251Z,6.15
2023-02-23T18:55:17.961Z,6.24
2023-02-23T18:57:45.732Z,6.31
2023-02-23T19:00:15.510Z,6.27
2023-02-23T19:02:46.355Z,6.31
2023-02-23T19:05:15.387Z,6.26
2023-02-23T19:07:43.372Z,6.29
2023-02-23T19:10:14.469Z,6.15
2023-02-23T19:12:43.877Z,6.08
2023-02-23T19:15:12.354Z,6.14
2023-02-23T19:17:40.264Z,6.06
2023-02-23T19:20:13.553Z,5.94
2023-02-23T19:22:42.458Z,5.94
2023-02-23T19:25:14.163Z,5.93
2023-02-23T19:27:44.023Z,5.93
2023-02-23T19:30:14.412Z,5.94
2023-02-23T19:32:43.137Z,5.99
2023-02-23T19:35:15.154Z,5.94
2023-02-23T19:37:48.514Z,5.97
2023-02-23T19:40:19.758Z,5.92
2023-02-23T19:42:49.628Z,5.93
2023-02-23T19:45:18.588Z,5.92
2023-02-23T19:47:46.552Z,5.84
2023-02-23T19:50:17.343Z,5.78
2023-02-23T19:52:46.157Z,5.77
2023-02-23T19:55:14.210Z,5.71
2023-02-23T19:57:42.029Z,5.68
2023-02-23T20:00:12.679Z,5.70
2023-02-23T20:02:43.521Z,5.70
2023-02-23T20:05:12.635Z,5.71
2023-02-23T20:07:40.754Z,5.62
2023-02-23T20:10:10.361Z,5.57
2023-02-23T20:12:38.244Z,5.55
2023-02-23T20:15:07.249Z,5.57
2023-02-23T20:17:36.807Z,5.57
2023-02-23T20:20:06.381Z,5.53
2023-02-23T20:22:36.324Z,5.50
2023-02-23T20:25:05.983Z,5.52
2023-02-23T20:27:33.959Z,5.53
2023-02-23T20:30:01.683Z,5.55
2023-02-23T20:32:29.667Z,5.54
2023-02-23T20:35:00.958Z,5.52
2023-02-23T20:37:28.879Z,5.47
2023-02-23T20:39:56.699Z,5.45
2023-02-23T20:42:26.384Z,5.42
2023-02-23T20:44:54.698Z,5.38
2023-02-23T20:47:23.094Z,5.36
2023-02-23T20:49:50.956Z,5.33
2023-02-23T20:52:20.132Z,5.33
2023-02-23T20:54:47.929Z,5.32
2023-02-23T20:57:15.750Z,5.29
2023-02-23T20:59:44.179Z,5.23
2023-02-23T21:02:13.988Z,5.15
2023-02-23T21:04:44.214Z,5.11
2023-02-23T21:07:13.525Z,5.05
2023-02-23T21:09:42.802Z,5.03
2023-02-23T21:12:11.169Z,4.98
2023-02-23T21:14:39.016Z,4.95
2023-02-23T21:17:07.448Z,4.91
2023-02-23T21:19:36.345Z,4.88
2023-02-23T21:22:04.256Z,4.89
2023-02-23T21:24:33.982Z,4.89
2023-02-23T21:27:05.302Z,4.88
2023-02-23T21:29:33.203Z,4.84
2023-02-23T21:32:01.128Z,4.79
2023-02-23T21:34:28.985Z,4.77
2023-02-23T21:36:59.208Z,4.74
2023-02-23T21:39:28.267Z,4.69
2023-02-23T21:41:56.219Z,4.64
2023-02-23T21:44:26.205Z,4.60
2023-02-23T21:46:54.044Z,4.56
2023-02-23T21:49:21.844Z,4.55
2023-02-23T21:51:50.496Z,4.55
2023-02-23T21:54:20.209Z,4.46
2023-02-23T21:56:47.978Z,4.44
2023-02-23T21:59:15.851Z,4.45
2023-02-23T22:01:45.037Z,4.45
2023-02-23T22:04:15.298Z,4.46
2023-02-23T22:06:45.090Z,4.45
2023-02-23T22:09:15.896Z,4.44
2023-02-23T22:11:46.404Z,4.41
2023-02-23T22:14:16.736Z,4.40
2023-02-23T22:16:47.647Z,4.37
2023-02-23T22:19:17.348Z,4.35
2023-02-23T22:21:47.836Z,4.32
2023-02-23T22:24:16.717Z,4.31
2023-02-23T22:26:50.460Z,4.26
2023-02-23T22:29:18.364Z,4.23
2023-02-23T22:31:47.685Z,4.20
2023-02-23T22:34:18.296Z,4.16
2023-02-23T22:36:46.580Z,4.13
2023-02-23T22:39:18.362Z,4.08
2023-02-23T22:41:47.169Z,4.06
2023-02-23T22:44:17.716Z,4.02
2023-02-23T22:46:48.210Z,3.97
2023-02-23T22:49:19.976Z,3.95
2023-02-23T22:51:48.125Z,3.91
2023-02-23T22:54:17.321Z,3.88
2023-02-23T22:56:46.828Z,3.85
2023-02-23T22:59:17.498Z,3.81
2023-02-23T23:01:47.395Z,3.79
2023-02-23T23:04:17.196Z,3.76
2023-02-23T23:06:46.252Z,3.74
2023-02-23T23:09:16.426Z,3.68
2023-02-23T23:11:44.420Z,3.65
2023-02-23T23:14:13.031Z,3.62
2023-02-23T23:16:48.011Z,3.60
2023-02-23T23:19:22.621Z,3.56
2023-02-23T23:21:54.826Z,3.54
2023-02-23T23:24:23.666Z,3.48
2023-02-23T23:26:55.490Z,3.44
2023-02-23T23:29:25.819Z,3.37
2023-02-23T23:31:55.291Z,3.34
2023-02-23T23:34:25.278Z,3.30
2023-02-23T23:36:53.509Z,3.28
2023-02-23T23:39:23.369Z,3.20
2023-02-23T23:41:51.527Z,3.19
2023-02-23T23:44:21.413Z,3.18
2023-02-23T23:46:51.450Z,3.16
2023-02-23T23:49:20.857Z,3.14
2023-02-23T23:51:51.959Z,3.09
2023-02-23T23:54:22.674Z,3.07
2023-02-23T23:56:51.418Z,3.03
2023-02-23T23:59:21.839Z,3.03
